Time;durP1;ratioP1;P1;durP2;ratioP2;P2;SDS_P1;SDS_P2;PMS_P1;PMS_P2;Temp;Humidity;BMP_temperature;BMP_pressure;BME280_temperature;BME280_humidity;BME280_pressure;Samples;Min_cycle;Max_cycle;Signal;HPM_P1;HPM_P2
2022/07/23 06:33:01;;;;;;;7.88;4.70;;;;;;;23.71;49.93;96730.34;2106509;27;20569;-67
2022/07/23 06:34:03;;;;;;;12.38;4.45;;;;;;;23.81;49.77;96728.44;2108033;28;20550;-67
2022/07/23 06:35:04;;;;;;;8.95;5.68;;;;;;;23.81;49.65;96729.28;2104157;28;20196;-68
2022/07/23 06:36:06;;;;;;;8.40;4.47;;;;;;;23.79;49.61;96727.75;2107252;28;20202;-68
2022/07/23 06:37:08;;;;;;;8.30;4.72;;;;;;;23.62;50.52;96735.53;2106295;28;20384;-68
2022/07/23 07:19:08;;;;;;;12.45;7.53;;;;;;;21.04;69.83;96737.53;2085164;28;20556;-68
2022/07/23 07:20:10;;;;;;;12.52;7.13;;;;;;;21.10;69.71;96731.69;2083808;28;20193;-68
2022/07/23 07:21:14;;;;;;;11.10;6.82;;;;;;;21.49;69.19;96725.72;2082204;28;20198;-68
2022/07/23 07:22:16;;;;;;;13.27;7.78;;;;;;;21.42;67.57;96738.69;2077807;28;20244;-68
2022/07/23 07:23:17;;;;;;;10.80;7.10;;;;;;;21.89;66.86;96726.66;2075551;28;20607;-67
2022/07/23 07:24:19;;;;;;;11.90;7.20;;;;;;;22.14;65.01;96734.13;2075614;28;20194;-68
2022/07/23 07:25:20;;;;;;;14.10;7.00;;;;;;;22.27;64.75;96740.97;2075505;28;20272;-67
2022/07/23 07:26:22;;;;;;;10.48;5.85;;;;;;;22.20;62.14;96747.84;2073353;28;20657;-68
2022/07/23 07:27:23;;;;;;;11.40;6.38;;;;;;;22.42;62.78;96744.94;2071009;28;20222;-67
2022/07/23 07:28:25;;;;;;;9.93;6.00;;;;;;;22.40;64.43;96746.06;2073917;28;20572;-68
2022/07/23 07:29:28;;;;;;;11.75;5.55;;;;;;;22.11;64.74;96728.25;2074513;28;20204;-67
2022/07/23 07:30:29;;;;;;;11.73;6.82;;;;;;;22.38;63.97;96748.03;2072835;28;20209;-67
2022/07/23 07:31:34;;;;;;;10.07;6.07;;;;;;;22.44;63.17;96742.97;2074371;28;20194;-68
2022/07/23 07:32:36;;;;;;;10.75;6.50;;;;;;;22.76;61.70;96748.97;2075070;28;20577;-63
2022/07/23 07:33:58;;;;;;;49.80;32.38;;;;;;;22.62;62.00;96753.75;2070768;28;20244;-64
2022/07/23 07:34:59;;;;;;;21.65;13.30;;;;;;;22.80;61.77;96753.03;2069800;28;20205;-64
2022/07/23 07:36:01;;;;;;;18.83;11.68;;;;;;;22.83;61.36;96766.06;2072344;28;20205;-66
2022/07/23 07:37:02;;;;;;;11.18;7.47;;;;;;;22.57;60.16;96765.81;2074426;28;20225;-66
2022/07/23 07:58:45;;;;;;;15.27;7.88;;;;;;;22.08;61.62;96768.41;2101402;27;20556;-69
2022/07/23 07:59:47;;;;;;;17.13;7.53;;;;;;;22.26;62.40;96756.09;2095393;28;20659;-70
2022/07/23 08:00:55;;;;;;;14.68;7.38;;;;;;;22.67;61.19;96767.47;2093217;28;20187;-70
2022/07/23 08:01:56;;;;;;;12.45;7.40;;;;;;;22.72;60.89;96772.38;2091761;28;20188;-70
2022/07/23 08:02:58;;;;;;;11.10;7.80;;;;;;;22.76;60.15;96771.09;2078717;28;20219;-70
2022/07/23 08:04:00;;;;;;;10.52;6.32;;;;;;;22.91;58.42;96779.50;2078504;28;20200;-70
2022/07/23 08:05:02;;;;;;;9.50;6.43;;;;;;;22.97;57.92;96778.09;2078855;28;20254;-70
2022/07/23 08:06:04;;;;;;;9.07;6.07;;;;;;;22.96;57.95;96777.25;2078845;28;20201;-70
2022/07/23 08:07:05;;;;;;;7.63;5.00;;;;;;;23.20;58.48;96773.31;2081882;28;20231;-70
2022/07/23 08:08:09;;;;;;;11.00;6.50;;;;;;;23.15;55.52;96776.41;2086921;28;20188;-70
2022/07/23 08:09:10;;;;;;;8.50;6.05;;;;;;;23.24;56.25;96779.19;2085060;28;20205;-70
2022/07/23 08:10:12;;;;;;;8.70;6.45;;;;;;;23.56;54.98;96776.09;2087164;28;20211;-70
2022/07/23 08:11:13;;;;;;;11.52;5.60;;;;;;;23.66;53.95;96772.59;2086812;28;20196;-71
2022/07/23 08:12:15;;;;;;;15.15;5.80;;;;;;;23.67;53.27;96779.56;2084197;28;20231;-71
2022/07/23 08:13:16;;;;;;;10.95;5.45;;;;;;;23.50;54.25;96771.38;2086991;28;20201;-70
2022/07/23 08:14:18;;;;;;;10.90;5.00;;;;;;;23.57;54.14;96775.13;2086847;28;20260;-71
2022/07/23 08:15:21;;;;;;;10.40;5.43;;;;;;;23.57;54.22;96771.63;2086854;28;20196;-71
2022/07/23 08:16:22;;;;;;;8.77;5.07;;;;;;;23.53;53.88;96772.91;2086258;28;20670;-70
2022/07/23 08:17:24;;;;;;;11.80;6.13;;;;;;;23.10;54.90;96772.47;2086268;28;20220;-70
2022/07/23 08:18:26;;;;;;;7.13;5.25;;;;;;;22.93;55.38;96774.03;2086603;28;20710;-70
2022/07/23 08:19:27;;;;;;;9.38;5.78;;;;;;;23.31;54.06;96767.81;2086885;28;20192;-70
2022/07/23 08:20:28;;;;;;;9.85;5.30;;;;;;;23.61;53.65;96778.34;2086642;28;20208;-71
2022/07/23 08:21:30;;;;;;;7.55;5.28;;;;;;;23.57;53.20;96772.47;2086767;28;20262;-70
2022/07/23 08:22:45;;;;;;;8.18;6.10;;;;;;;23.75;53.42;96774.34;2102283;28;20218;-71
2022/07/23 08:23:47;;;;;;;8.95;6.18;;;;;;;24.04;52.69;96771.56;2098666;28;20191;-70
2022/07/23 08:24:48;;;;;;;7.63;5.10;;;;;;;24.19;52.38;96779.88;2086710;28;20599;-71
2022/07/23 08:25:50;;;;;;;7.88;5.20;;;;;;;24.23;52.48;96777.75;2086844;28;20203;-71
2022/07/23 08:26:51;;;;;;;8.00;5.10;;;;;;;24.38;52.57;96781.56;2086370;28;20189;-70
2022/07/23 08:27:53;;;;;;;7.53;5.10;;;;;;;24.51;52.26;96783.84;2085721;28;20228;-71
2022/07/23 08:28:54;;;;;;;8.88;5.50;;;;;;;24.38;52.29;96794.06;2084502;28;20246;-67
2022/07/23 08:29:56;;;;;;;12.50;6.00;;;;;;;24.33;53.10;96789.19;2086450;28;20555;-67
2022/07/23 08:30:57;;;;;;;9.40;5.60;;;;;;;24.25;53.23;96795.28;2086081;28;20203;-67
2022/07/23 08:31:59;;;;;;;10.75;6.03;;;;;;;24.02;53.56;96792.19;2085446;28;20201;-67
2022/07/23 08:33:20;;;;;;;8.75;5.97;;;;;;;24.16;53.02;96787.34;2085943;28;20561;-67
2022/07/23 08:34:34;;;;;;;6.88;4.70;;;;;;;24.45;52.46;96795.13;2086465;28;20736;-67
2022/07/23 08:35:41;;;;;;;8.40;4.65;;;;;;;24.82;51.90;96788.81;2086623;28;20212;-67
2022/07/23 08:36:42;;;;;;;9.25;4.88;;;;;;;25.16;51.11;96788.06;2086182;28;20200;-66
2022/07/23 08:37:44;;;;;;;8.32;5.10;;;;;;;24.85;50.84;96791.19;2086795;28;20189;-65
2022/07/23 08:38:45;;;;;;;12.40;5.18;;;;;;;24.59;51.13;96789.28;2086456;28;20209;-65
2022/07/23 08:39:47;;;;;;;22.90;14.30;;;;;;;24.61;51.69;96789.13;2086747;28;20711;-66
2022/07/23 08:40:53;;;;;;;25.00;18.05;;;;;;;25.07;50.39;96779.16;2086718;28;20858;-67
2022/07/23 08:41:55;;;;;;;10.70;5.50;;;;;;;24.86;50.42;96787.53;2102116;28;20202;-67
2022/07/23 08:42:57;;;;;;;9.52;6.10;;;;;;;25.20;49.17;96760.03;2102265;28;20195;-67
2022/07/23 08:44:00;;;;;;;6.75;5.35;;;;;;;25.53;48.38;96775.44;2086779;28;20189;-67
2022/07/23 08:45:03;;;;;;;8.05;5.50;;;;;;;25.73;48.40;96787.56;2086761;28;20725;-67
2022/07/23 08:46:05;;;;;;;8.38;5.70;;;;;;;25.91;47.91;96783.97;2086156;28;20197;-67
2022/07/23 08:47:06;;;;;;;10.68;5.30;;;;;;;25.48;48.81;96778.59;2086223;28;20221;-67
2022/07/23 08:48:16;;;;;;;7.88;5.45;;;;;;;25.63;49.01;96783.38;2086776;28;20765;-67
2022/07/23 08:49:17;;;;;;;7.63;4.95;;;;;;;25.56;48.61;96767.09;2086483;28;20197;-67
2022/07/23 08:50:20;;;;;;;6.85;5.40;;;;;;;25.46;48.57;96779.75;2084591;28;20192;-67
2022/07/23 08:51:26;;;;;;;9.73;4.97;;;;;;;25.20;48.08;96776.06;2086580;28;20207;-67
2022/07/23 08:52:30;;;;;;;9.20;5.60;;;;;;;25.11;47.92;96771.66;2085911;28;20221;-67
2022/07/23 08:53:35;;;;;;;6.80;4.97;;;;;;;24.92;48.75;96773.56;2086547;28;20207;-65
2022/07/23 08:54:37;;;;;;;7.85;4.40;;;;;;;25.04;48.62;96779.47;2086310;28;20203;-65
2022/07/23 08:55:40;;;;;;;7.15;4.22;;;;;;;25.49;47.26;96776.78;2086573;28;20204;-65
2022/07/23 08:56:41;;;;;;;6.35;5.03;;;;;;;25.81;46.40;96789.44;2086522;28;20197;-65
2022/07/23 08:57:43;;;;;;;5.70;4.40;;;;;;;25.73;45.75;96781.41;2085924;28;20224;-65
2022/07/23 08:58:45;;;;;;;12.35;4.97;;;;;;;25.59;44.92;96786.34;2086540;28;20212;-65
2022/07/23 08:59:46;;;;;;;8.20;4.22;;;;;;;25.39;44.84;96780.38;2086711;28;20197;-69
2022/07/23 09:00:49;;;;;;;5.00;3.95;;;;;;;25.72;44.71;96785.06;2086496;28;20205;-69
2022/07/23 09:01:51;;;;;;;7.63;4.75;;;;;;;25.49;45.91;96788.28;2086189;28;20199;-69
2022/07/23 09:02:52;;;;;;;10.27;4.57;;;;;;;25.54;46.08;96782.47;2085835;28;20232;-71
2022/07/23 09:03:54;;;;;;;8.60;4.82;;;;;;;25.29;45.47;96784.97;2085763;28;20197;-70
2022/07/23 09:04:55;;;;;;;8.90;4.70;;;;;;;25.03;46.35;96779.66;2086183;28;20203;-69
2022/07/23 09:05:58;;;;;;;6.40;4.80;;;;;;;25.19;46.34;96778.91;2086175;28;20698;-70
2022/07/23 09:07:01;;;;;;;6.53;4.95;;;;;;;25.45;45.57;96778.94;2083351;28;20192;-69
2022/07/23 09:08:19;;;;;;;11.65;4.80;;;;;;;25.59;44.85;96782.84;2085827;28;20200;-71
2022/07/23 09:09:21;;;;;;;7.28;4.50;;;;;;;24.96;45.70;96781.25;2085681;28;20261;-69
2022/07/23 09:10:22;;;;;;;8.93;4.80;;;;;;;25.27;45.28;96787.81;2080270;28;20201;-70
2022/07/23 09:11:27;;;;;;;8.10;4.38;;;;;;;25.50;44.00;96784.63;2080623;28;20204;-70
2022/07/23 09:12:29;;;;;;;8.07;4.65;;;;;;;25.79;43.57;96787.94;2080638;28;20221;-71
2022/07/23 09:13:35;;;;;;;8.57;4.45;;;;;;;25.34;43.90;96787.19;2081088;28;20671;-71
2022/07/23 09:14:49;;;;;;;7.55;4.40;;;;;;;25.75;43.24;96785.59;2079930;28;20683;-70
2022/07/23 09:15:52;;;;;;;7.78;4.38;;;;;;;26.56;42.56;96785.16;2080990;28;20687;-71
2022/07/23 09:16:54;;;;;;;5.72;4.35;;;;;;;26.03;42.71;96782.69;2078468;28;20208;-70
2022/07/23 09:17:56;;;;;;;7.57;4.90;;;;;;;25.45;43.74;96776.25;2081001;28;20208;-68
2022/07/23 09:19:03;;;;;;;5.20;3.55;;;;;;;25.99;43.34;96772.47;2080792;28;20549;-69
2022/07/23 09:20:15;;;;;;;11.80;4.85;;;;;;;26.69;42.69;96777.47;2080858;28;20197;-68
2022/07/23 09:21:32;;;;;;;17.70;8.50;;;;;;;26.36;42.26;96781.94;2079752;28;20228;-68
2022/07/23 09:22:34;;;;;;;9.98;5.45;;;;;;;26.38;42.56;96777.28;2080435;28;20229;-69
2022/07/23 09:23:58;;;;;;;5.75;4.20;;;;;;;26.43;42.82;96779.47;2080847;28;20197;-68
2022/07/23 09:25:15;;;;;;;7.20;4.35;;;;;;;26.46;42.14;96768.41;2080626;28;20248;-68
2022/07/23 09:26:25;;;;;;;12.10;5.13;;;;;;;27.30;41.32;96773.59;2079158;28;20555;-69
2022/07/23 09:27:47;;;;;;;7.75;3.80;;;;;;;27.29;40.72;96779.97;2080282;28;20267;-68
2022/07/23 09:29:07;;;;;;;6.95;4.28;;;;;;;27.28;41.16;96778.28;2080030;28;20232;-70
2022/07/23 09:30:09;;;;;;;6.53;4.53;;;;;;;27.60;40.31;96777.38;2080477;28;20671;-68
2022/07/23 09:31:10;;;;;;;7.40;5.00;;;;;;;27.17;40.96;96782.16;2080776;28;20201;-68
2022/07/23 09:32:13;;;;;;;6.78;3.80;;;;;;;27.55;41.21;96774.38;2080363;28;20281;-69
2022/07/23 09:33:15;;;;;;;5.60;4.50;;;;;;;27.61;39.69;96780.91;2080777;28;20801;-69
2022/07/23 09:34:20;;;;;;;7.10;4.40;;;;;;;27.94;39.54;96788.84;2080779;28;20692;-68
2022/07/23 09:36:03;;;;;;;5.95;3.90;;;;;;;28.33;37.55;96782.63;2080583;28;20204;-68
2022/07/23 09:37:14;;;;;;;6.78;3.65;;;;;;;28.37;37.02;96783.09;2080311;28;20220;-69
2022/07/23 09:38:17;;;;;;;5.00;3.97;;;;;;;28.34;37.62;96768.16;2079544;28;20193;-68
2022/07/23 09:39:26;;;;;;;5.05;3.55;;;;;;;28.85;37.70;96783.78;2080561;28;20263;-68
2022/07/23 09:40:28;;;;;;;7.45;4.00;;;;;;;28.74;38.21;96776.97;2078896;28;20208;-68
2022/07/23 09:41:43;;;;;;;6.88;4.43;;;;;;;28.83;38.48;96788.50;2079869;28;20204;-68
2022/07/23 09:42:55;;;;;;;7.45;4.28;;;;;;;29.28;37.31;96784.09;2080323;28;20220;-68
2022/07/23 09:43:56;;;;;;;8.00;3.88;;;;;;;29.56;36.38;96786.16;2080576;28;20200;-69
2022/07/23 09:44:59;;;;;;;5.57;4.32;;;;;;;29.40;36.34;96783.66;2080723;28;20189;-67
2022/07/23 09:46:25;;;;;;;5.82;4.00;;;;;;;29.28;35.95;96785.94;2080564;28;20576;-68
2022/07/23 09:47:30;;;;;;;9.98;4.22;;;;;;;29.64;34.77;96779.84;2070833;28;20238;-68
2022/07/23 09:48:32;;;;;;;5.15;3.45;;;;;;;29.66;35.64;96775.09;2079824;28;20197;-67
2022/07/23 09:49:33;;;;;;;7.47;4.18;;;;;;;29.47;36.12;96771.13;2080806;28;20197;-68
2022/07/23 09:50:35;;;;;;;6.35;4.32;;;;;;;29.58;36.71;96778.72;2080621;28;20718;-67
2022/07/23 09:51:57;;;;;;;6.28;4.30;;;;;;;29.83;35.74;96785.66;2080532;28;20200;-67
2022/07/23 09:52:59;;;;;;;14.85;4.10;;;;;;;29.48;35.91;96786.22;2079646;28;20212;-67
2022/07/23 09:54:00;;;;;;;6.20;4.35;;;;;;;29.88;35.82;96780.59;2080561;28;20193;-68
2022/07/23 09:55:05;;;;;;;5.22;4.07;;;;;;;29.72;36.22;96785.13;2080590;28;20201;-67
2022/07/23 09:56:07;;;;;;;6.55;3.90;;;;;;;29.80;35.66;96786.88;2080772;28;20208;-68
2022/07/23 09:57:14;;;;;;;13.80;4.63;;;;;;;29.59;35.41;96779.56;2080235;28;20557;-67
2022/07/23 09:58:17;;;;;;;5.93;3.90;;;;;;;29.10;35.86;96789.78;2080191;28;20229;-67
2022/07/23 09:59:23;;;;;;;6.60;4.07;;;;;;;27.98;37.97;96782.94;2080059;28;20216;-67
2022/07/23 10:00:25;;;;;;;6.45;4.20;;;;;;;27.93;38.85;96793.34;2080723;28;20426;-67
2022/07/23 10:01:27;;;;;;;6.88;4.00;;;;;;;27.90;38.68;96790.22;2080376;28;20205;-68
2022/07/23 10:02:32;;;;;;;5.97;4.28;;;;;;;28.52;38.44;96789.38;2079486;28;20221;-68
2022/07/23 10:03:34;;;;;;;7.75;3.83;;;;;;;28.75;37.19;96797.47;2080554;28;20196;-68
2022/07/23 10:04:36;;;;;;;6.82;4.30;;;;;;;28.61;37.21;96782.94;2080393;28;20204;-68
2022/07/23 10:05:43;;;;;;;9.52;4.90;;;;;;;28.80;37.35;96791.56;2080450;28;20197;-67
2022/07/23 10:06:45;;;;;;;6.55;3.92;;;;;;;28.66;37.50;96788.63;2079868;28;20208;-67
2022/07/23 10:07:48;;;;;;;6.50;4.70;;;;;;;28.90;37.08;96797.53;2080233;28;20185;-68
2022/07/23 10:08:58;;;;;;;7.50;4.18;;;;;;;29.28;37.25;96786.78;2078650;28;20204;-68
2022/07/23 10:10:00;;;;;;;7.05;4.05;;;;;;;29.52;36.50;96794.78;2080267;28;20204;-67
2022/07/23 10:11:03;;;;;;;5.07;3.95;;;;;;;29.02;36.97;96792.53;2080201;28;20197;-67
2022/07/23 10:14:41;;;;;;;7.55;4.65;;;;;;;28.81;37.60;96796.75;2080339;28;20207;-68
2022/07/23 10:15:43;;;;;;;6.70;4.43;;;;;;;29.18;37.52;96783.50;2078732;28;20197;-67
2022/07/23 10:16:45;;;;;;;8.60;4.73;;;;;;;29.75;37.24;96783.91;2079778;28;20212;-67
2022/07/23 10:17:48;;;;;;;7.22;4.38;;;;;;;29.77;36.91;96788.09;2080395;28;20426;-67
2022/07/23 10:18:50;;;;;;;5.35;4.18;;;;;;;29.84;36.72;96790.88;2079899;28;20201;-67
2022/07/23 10:19:51;;;;;;;8.55;4.50;;;;;;;29.23;37.56;96788.31;2080217;28;20213;-68
2022/07/23 10:20:53;;;;;;;5.43;4.28;;;;;;;29.87;36.71;96787.81;2079458;28;20539;-68
2022/07/23 10:21:59;;;;;;;7.80;4.57;;;;;;;29.87;36.12;96784.28;2079077;28;20220;-67
2022/07/23 10:23:28;;;;;;;5.63;4.40;;;;;;;29.49;36.73;96790.59;2080108;28;20433;-68
2022/07/23 10:25:04;;;;;;;7.78;4.80;;;;;;;28.97;36.21;96787.69;2078224;28;20902;-68
2022/07/23 10:26:20;;;;;;;5.35;4.15;;;;;;;29.05;36.02;96784.13;2079768;28;20238;-67
2022/07/23 10:27:49;;;;;;;5.93;4.07;;;;;;;28.92;36.71;96781.22;2079478;28;20232;-67
2022/07/23 10:29:19;;;;;;;9.88;4.10;;;;;;;28.91;36.91;96782.22;2080259;28;20418;-67
2022/07/23 10:30:37;;;;;;;5.55;4.35;;;;;;;28.75;37.34;96794.78;2080256;28;20201;-67
2022/07/23 10:31:43;;;;;;;6.25;4.30;;;;;;;29.38;36.71;96791.06;2079828;28;20606;-67
2022/07/23 10:33:20;;;;;;;13.52;3.90;;;;;;;30.00;35.27;96781.78;2080063;28;20338;-69
2022/07/23 10:34:58;;;;;;;7.47;4.00;;;;;;;29.95;33.51;96776.13;2079749;28;20197;-67
2022/07/23 10:36:23;;;;;;;6.38;3.90;;;;;;;29.90;33.61;96779.41;2080141;28;20732;-68
2022/07/23 10:37:43;;;;;;;11.80;4.45;;;;;;;29.91;34.40;96782.91;2079073;28;20311;-67
2022/07/23 10:38:47;;;;;;;6.95;4.28;;;;;;;30.37;34.03;96779.09;2079632;28;20735;-68
2022/07/23 10:40:09;;;;;;;6.03;3.75;;;;;;;29.90;34.23;96782.09;2079583;28;20244;-67
2022/07/23 10:41:10;;;;;;;5.20;3.90;;;;;;;30.31;34.22;96778.00;2080095;28;20217;-68
2022/07/23 10:42:16;;;;;;;7.25;4.50;;;;;;;30.52;34.45;96782.59;2078719;28;20684;-67
2022/07/23 10:43:17;;;;;;;4.82;3.65;;;;;;;30.60;33.92;96779.78;2079922;28;20201;-68
2022/07/23 10:44:23;;;;;;;7.87;4.50;;;;;;;30.95;33.27;96782.56;2079321;28;20230;-68
2022/07/23 10:45:32;;;;;;;6.20;4.23;;;;;;;30.63;33.97;96781.25;2079939;28;20566;-68
2022/07/23 10:47:41;;;;;;;7.23;4.40;;;;;;;30.78;33.57;96783.91;2078936;28;20971;-68
2022/07/23 10:49:25;;;;;;;6.20;4.17;;;;;;;30.79;33.21;96782.84;2079337;28;20426;-68
2022/07/23 10:50:48;;;;;;;5.13;3.70;;;;;;;31.42;32.24;96782.97;2079873;28;20983;-67
2022/07/23 10:52:14;;;;;;;4.97;3.80;;;;;;;30.51;32.81;96788.19;2078369;28;20450;-67
2022/07/23 10:53:17;;;;;;;7.07;4.43;;;;;;;30.18;33.62;96786.75;2079747;28;20485;-68
2022/07/23 10:54:22;;;;;;;7.10;3.97;;;;;;;30.44;33.74;96786.22;2079981;28;20423;-69
2022/07/23 10:55:26;;;;;;;5.07;3.57;;;;;;;30.29;34.17;96785.44;2079322;28;21159;-68
2022/07/23 10:56:56;;;;;;;8.40;4.20;;;;;;;30.77;33.41;96788.44;2079719;28;20426;-68
2022/07/23 10:57:58;;;;;;;5.73;3.70;;;;;;;29.93;34.66;96788.97;2079101;28;20442;-68
2022/07/23 10:59:04;;;;;;;6.30;4.47;;;;;;;30.44;33.03;96793.47;2079870;28;20437;-68
2022/07/23 11:00:15;;;;;;;6.70;4.10;;;;;;;30.37;32.82;96788.03;2078773;28;20462;-67
2022/07/23 11:01:38;;;;;;;4.23;3.77;;;;;;;30.24;32.48;96787.88;2079491;28;20443;-64
2022/07/23 11:02:43;;;;;;;6.63;4.27;;;;;;;29.93;32.68;96781.72;2078940;28;20555;-64
2022/07/23 11:03:56;;;;;;;5.40;3.73;;;;;;;29.39;34.19;96782.78;2079777;28;20426;-64
2022/07/23 11:05:11;;;;;;;6.73;4.27;;;;;;;29.14;34.43;96780.34;2079091;28;20434;-68
2022/07/23 11:06:12;;;;;;;5.00;4.00;;;;;;;29.62;34.09;96777.34;2079744;28;20430;-68
2022/07/23 11:07:15;;;;;;;9.03;4.47;;;;;;;29.78;34.48;96788.94;2079524;28;20766;-68
2022/07/23 11:08:22;;;;;;;8.10;4.55;;;;;;;30.22;33.47;96781.81;2079149;28;20453;-64
2022/07/23 11:09:27;;;;;;;5.40;4.20;;;;;;;30.28;32.54;96781.91;2078409;28;20191;-66
2022/07/23 11:10:37;;;;;;;9.95;4.35;;;;;;;29.66;33.32;96775.09;2078791;28;20197;-65
2022/07/23 11:11:39;;;;;;;21.87;14.47;;;;;;;29.72;33.74;96773.53;2079107;28;20204;-63
2022/07/23 11:12:41;;;;;;;16.10;4.87;;;;;;;30.22;33.48;96787.22;2079392;28;21032;-64
2022/07/23 11:13:47;;;;;;;8.57;4.60;;;;;;;29.92;33.99;96776.53;2079842;28;20426;-64
2022/07/23 11:15:08;;;;;;;7.27;4.67;;;;;;;30.84;32.95;96782.28;2079767;28;20430;-64
2022/07/23 11:16:12;;;;;;;7.40;4.47;;;;;;;30.90;32.49;96789.59;2078488;28;20488;-64
2022/07/23 11:17:20;;;;;;;6.87;4.00;;;;;;;30.60;32.66;96781.63;2079339;28;20472;-65
2022/07/23 11:18:44;;;;;;;6.00;4.07;;;;;;;31.06;32.02;96778.56;2079566;28;20484;-64
2022/07/23 11:20:13;;;;;;;7.30;4.70;;;;;;;31.02;31.33;96779.97;2077767;28;21010;-64
2022/07/23 11:21:20;;;;;;;6.03;3.97;;;;;;;30.74;31.87;96779.91;2078594;28;20940;-64
2022/07/23 11:22:46;;;;;;;14.90;4.47;;;;;;;31.10;31.66;96782.53;2079280;28;20469;-64
2022/07/23 11:23:56;;;;;;;6.13;3.90;;;;;;;31.31;31.98;96780.81;2079723;28;20438;-67
2022/07/23 11:24:57;;;;;;;7.20;4.33;;;;;;;31.29;32.10;96777.50;2079851;28;20770;-67
2022/07/23 11:25:59;;;;;;;11.33;4.23;;;;;;;31.49;31.93;96780.31;2079979;28;20430;-66
2022/07/23 11:27:02;;;;;;;7.80;5.17;;;;;;;31.12;32.39;96776.94;2079741;28;20433;-67
2022/07/23 11:28:17;;;;;;;9.80;4.77;;;;;;;31.37;32.08;96776.50;2079896;28;20435;-67
2022/07/23 11:29:27;;;;;;;5.83;4.03;;;;;;;31.18;31.85;96778.03;2080032;28;20909;-66
2022/07/23 11:30:29;;;;;;;6.90;4.77;;;;;;;31.34;31.53;96772.34;2077979;28;20477;-67
2022/07/23 11:31:30;;;;;;;9.43;4.90;;;;;;;31.31;31.54;96769.19;2080144;28;20419;-66
2022/07/23 11:32:38;;;;;;;7.63;4.60;;;;;;;31.74;31.51;96777.16;2080261;28;20455;-66
2022/07/23 11:33:40;;;;;;;5.50;3.80;;;;;;;31.80;31.41;96776.38;2078344;28;20785;-67
2022/07/23 11:34:43;;;;;;;5.70;4.30;;;;;;;31.37;32.37;96773.81;2080517;28;20909;-69
2022/07/23 11:35:46;;;;;;;7.03;3.50;;;;;;;31.38;31.88;96770.09;2080901;28;20912;-66
2022/07/23 11:36:51;;;;;;;5.07;4.57;;;;;;;31.82;31.77;96770.75;2080317;28;20842;-66
2022/07/23 11:38:22;;;;;;;8.10;4.53;;;;;;;31.64;31.60;96774.81;2080834;28;20437;-67
2022/07/23 11:39:30;;;;;;;5.53;3.93;;;;;;;31.39;32.07;96769.06;2080265;28;20426;-67
2022/07/23 11:40:32;;;;;;;10.80;4.27;;;;;;;31.15;32.41;96773.88;2080493;28;20814;-67
2022/07/23 11:41:44;;;;;;;10.83;4.30;;;;;;;31.14;32.30;96779.47;2081110;28;20592;-66
2022/07/23 11:42:56;;;;;;;13.30;4.40;;;;;;;31.52;31.99;96771.81;2080553;28;20438;-66
2022/07/23 11:43:57;;;;;;;7.17;4.50;;;;;;;31.51;32.16;96774.72;2080832;28;20442;-67
2022/07/23 11:44:59;;;;;;;4.93;4.00;;;;;;;32.10;31.42;96777.94;2078212;28;20509;-67
2022/07/23 11:46:00;;;;;;;8.07;4.50;;;;;;;31.27;32.69;96774.16;2082151;28;20423;-67
2022/07/23 11:47:03;;;;;;;8.83;4.47;;;;;;;31.59;31.25;96775.41;2081987;28;21066;-66
2022/07/23 11:48:08;;;;;;;5.83;3.63;;;;;;;31.57;31.94;96769.34;2082781;28;20433;-66
2022/07/23 11:49:10;;;;;;;6.00;3.87;;;;;;;31.31;31.62;96767.31;2081725;28;20755;-67
2022/07/23 11:50:12;;;;;;;4.50;3.83;;;;;;;31.34;31.34;96772.34;2082605;28;20426;-67
2022/07/23 11:51:26;;;;;;;10.13;4.03;;;;;;;31.33;31.64;96770.66;2081732;28;20437;-67
2022/07/23 11:52:28;;;;;;;5.30;4.73;;;;;;;31.87;31.28;96773.69;2082131;28;20466;-67
2022/07/23 11:53:33;;;;;;;6.80;3.93;;;;;;;32.03;31.24;96767.13;2081911;28;20418;-67
2022/07/23 11:54:46;;;;;;;5.90;4.27;;;;;;;31.41;32.99;96766.97;2082604;28;20414;-68
2022/07/23 11:55:47;;;;;;;6.93;3.93;;;;;;;31.59;33.13;96770.00;2080845;28;20433;-68
2022/07/23 11:57:07;;;;;;;5.20;4.20;;;;;;;31.47;32.88;96768.88;2080288;28;20433;-67
2022/07/23 11:58:08;;;;;;;8.57;4.60;;;;;;;32.07;32.27;96771.94;2080309;28;20466;-68
2022/07/23 11:59:11;;;;;;;5.23;4.73;;;;;;;32.26;31.92;96763.28;2080615;28;20430;-68
2022/07/23 12:00:20;;;;;;;7.00;4.93;;;;;;;32.06;32.55;96762.16;2080590;28;20462;-67
2022/07/23 12:01:22;;;;;;;7.30;4.50;;;;;;;31.62;32.83;96762.53;2078731;28;20487;-68
2022/07/23 12:02:25;;;;;;;8.27;5.20;;;;;;;31.78;32.86;96764.09;2079828;28;20549;-68
2022/07/23 12:03:27;;;;;;;9.40;4.50;;;;;;;32.30;32.15;96756.44;2080224;28;20495;-67
2022/07/23 12:04:45;;;;;;;7.83;4.70;;;;;;;32.43;31.39;96761.88;2079801;28;20433;-68
2022/07/23 12:05:47;;;;;;;7.33;5.30;;;;;;;32.48;31.26;96764.78;2079151;28;20429;-67
2022/07/23 12:06:48;;;;;;;6.83;4.30;;;;;;;32.05;31.45;96763.19;2079819;28;20442;-67
2022/07/23 12:07:52;;;;;;;6.53;4.97;;;;;;;32.07;30.96;96765.66;2080304;28;20434;-67
2022/07/23 12:08:53;;;;;;;8.43;4.97;;;;;;;32.14;30.92;96765.69;2080282;28;20430;-68
2022/07/23 12:10:01;;;;;;;10.23;4.17;;;;;;;32.37;30.85;96765.41;2079819;28;20426;-68
2022/07/23 12:11:02;;;;;;;4.70;3.63;;;;;;;32.16;30.26;96766.31;2079456;28;20437;-67
2022/07/23 12:12:04;;;;;;;5.00;4.40;;;;;;;31.55;31.46;96765.19;2079648;28;20446;-68
2022/07/23 12:13:10;;;;;;;4.90;4.40;;;;;;;31.96;31.19;96768.94;2078520;28;20427;-68
2022/07/23 12:14:11;;;;;;;6.63;4.13;;;;;;;31.75;31.42;96768.84;2079918;28;20429;-68
2022/07/23 12:15:17;;;;;;;4.30;3.90;;;;;;;32.03;30.44;96767.94;2078500;28;20438;-68
2022/07/23 12:16:18;;;;;;;4.60;4.07;;;;;;;31.73;31.43;96765.53;2079286;28;20430;-68
2022/07/23 12:17:27;;;;;;;6.87;4.90;;;;;;;31.81;31.17;96769.94;2079338;28;20458;-68
2022/07/23 12:18:29;;;;;;;5.80;4.53;;;;;;;32.27;30.92;96763.06;2079409;28;20461;-67
2022/07/23 12:19:30;;;;;;;5.30;4.23;;;;;;;31.87;31.55;96771.00;2079814;28;20921;-65
2022/07/23 12:20:38;;;;;;;6.37;4.37;;;;;;;31.79;31.00;96769.28;2079499;28;20488;-65
2022/07/23 12:21:40;;;;;;;7.50;4.63;;;;;;;30.83;31.44;96759.91;2079236;28;20422;-64
2022/07/23 12:22:44;;;;;;;7.50;4.73;;;;;;;30.98;31.44;96764.34;2079204;28;20465;-65
2022/07/23 12:23:48;;;;;;;6.70;4.87;;;;;;;30.95;31.39;96763.72;2078451;28;20445;-65
2022/07/23 12:24:54;;;;;;;4.60;3.90;;;;;;;31.48;30.90;96764.31;2079693;28;20438;-66
2022/07/23 12:26:01;;;;;;;5.73;4.37;;;;;;;31.43;29.98;96754.13;2079665;28;20426;-65
2022/07/23 12:27:13;;;;;;;7.43;4.30;;;;;;;31.82;29.64;96758.13;2079244;28;20450;-64
2022/07/23 12:28:20;;;;;;;5.00;3.73;;;;;;;32.07;29.73;96762.97;2079767;28;20430;-65
2022/07/23 12:29:22;;;;;;;5.40;4.40;;;;;;;31.96;29.52;96755.44;2079846;28;20433;-65
2022/07/23 12:30:26;;;;;;;6.30;4.10;;;;;;;31.97;29.42;96755.25;2079227;28;20435;-65
2022/07/23 12:31:34;;;;;;;5.67;4.03;;;;;;;31.37;30.42;96758.44;2078047;28;20472;-65
2022/07/23 12:32:44;;;;;;;8.10;3.93;;;;;;;31.50;29.68;96749.59;2079186;28;20461;-65
2022/07/23 12:33:46;;;;;;;9.80;3.80;;;;;;;31.80;29.51;96753.94;2079655;28;20788;-65
2022/07/23 12:34:50;;;;;;;5.50;3.93;;;;;;;31.27;29.60;96755.25;2079714;28;20434;-65
2022/07/23 12:35:54;;;;;;;5.40;4.10;;;;;;;31.50;30.05;96746.06;2079434;28;20426;-66
2022/07/23 12:36:55;;;;;;;5.57;4.10;;;;;;;31.42;30.53;96755.97;2079091;28;20939;-65
2022/07/23 12:38:02;;;;;;;6.47;4.33;;;;;;;31.78;30.73;96754.13;2079713;28;20513;-66
2022/07/23 12:39:04;;;;;;;10.13;4.63;;;;;;;31.39;31.48;96756.38;2079442;28;20778;-66
2022/07/23 12:40:19;;;;;;;10.50;4.53;;;;;;;31.20;31.57;96754.41;2079789;28;20929;-65
2022/07/23 12:41:23;;;;;;;5.27;4.67;;;;;;;31.20;32.16;96757.09;2078629;28;20936;-66
2022/07/23 12:42:24;;;;;;;5.67;4.60;;;;;;;31.57;31.47;96753.16;2078582;28;20465;-65
2022/07/23 12:43:31;;;;;;;11.00;5.80;;;;;;;31.47;31.28;96755.41;2079580;28;20529;-65
2022/07/23 12:44:33;;;;;;;4.77;4.20;;;;;;;31.19;31.39;96763.53;2079659;28;20479;-66
2022/07/23 12:45:54;;;;;;;5.17;3.80;;;;;;;31.51;31.67;96750.44;2081252;28;20514;-65
2022/07/23 12:46:55;;;;;;;13.50;4.90;;;;;;;31.30;31.58;96754.88;2079213;28;20472;-65
2022/07/23 12:48:06;;;;;;;8.00;4.57;;;;;;;31.46;31.41;96758.31;2081278;28;20466;-66
2022/07/23 12:49:08;;;;;;;7.80;4.50;;;;;;;31.60;31.29;96749.25;2080714;28;20773;-65
2022/07/23 12:50:34;;;;;;;6.23;4.13;;;;;;;30.98;32.39;96762.47;2080350;28;20521;-65